Terminal Aerodrome Forecast
Issued by NWS Rapid City, SD

Home | Current Version | Previous Version | Graphics & Text | Print | Product List | Glossary On
Versions: 1 2 3 4 5 6 7 8 9 10 11 12
966
FTUS43 KUNR 211120
TAFRAP
TAF
KRAP 211120Z 2112/2212 36012G18KT P6SM SCT100
     FM211900 03011KT P6SM SCT250
     FM220200 VRB05KT P6SM SCT250=

USA.gov is the U.S. government's official web portal to all federal, state and local government web resources and services.